• Join FlightAware (Why Join?)
  • Login
  • US Flag 
01:51AM EDT


 

Airport Tracker/Info


-or-


 

Live Flight TrackerFlight Track Log ✈ N70AG ✈ 14-May-2013 ✈ KSAN - KLAS

Flight Track Log - Related Links

Times and Time Zones

All times are in EDT time to prevent confusion due to time zone crossing. See the N70AG flight status page for this flight to view local times or setup timezone preferences in your user account.

Time Position Orientation Groundspeed Altitude Reporting Facility
EDT Latitude Longitude Course Direction KTS MPH feet Rate Location/Type
03:41PM 32.7667 -117.2667 307° West 219 252 4,400  Level Southern California TRACON
03:42PM 32.8075 -117.3317 307° West 256 295 8,100 3,060 Climbing Los Angeles Center
03:43PM 32.8556 -117.4114 306° West 286 329 10,800 2,760 Climbing Los Angeles Center
03:44PM 32.9158 -117.5078 307° West 353 406 13,900 3,240 Climbing Los Angeles Center
03:45PM 33.0061 -117.5744 328° Northwest 375 432 17,500 3,120 Climbing Los Angeles Center
03:46PM 33.0742 -117.6722 310° West 381 438 20,400 2,700 Climbing Los Angeles Center
03:47PM 33.1456 -117.7761 309° West 398 458 23,200 2,820 Climbing Los Angeles Center
03:48PM 33.2508 -117.8950 317° Northwest 432 497 26,300 1,800 Climbing Los Angeles Center
03:49PM 33.3406 -118.0000 316° Northwest 447 514 27,000 300 Climbing Los Angeles Center
03:50PM 33.4342 -118.1067 316° Northwest 461 531 27,000  Level Los Angeles Center
03:51PM 33.5283 -118.2153 316° Northwest 467 537 27,000 480 Level Los Angeles Center
03:53PM 33.6503 -118.2472 348° North 473 544 28,000 840 Climbing Los Angeles Center
03:54PM 33.7778 -118.1322 37° Northeast 497 572 29,000 420 Climbing Los Angeles Center
03:55PM 33.8956 -117.9969 44° Northeast 493 567 29,000  Level Los Angeles Center
03:56PM 33.9939 -117.8853 43° Northeast 490 564 29,000  Level Los Angeles Center
03:57PM 34.0919 -117.7703 44° Northeast 491 565 29,000  Level Los Angeles Center
03:58PM 34.1647 -117.6717 48° Northeast 494 568 29,000  Level Los Angeles Center
03:59PM 34.2903 -117.5014 48° Northeast 485 558 29,000  Level Los Angeles Center
04:00PM 34.3814 -117.3775 48° Northeast 489 563 29,000 -180 Level Los Angeles Center
04:01PM 34.4619 -117.2644 49° Northeast 483 556 28,700 -1,260 Descending Los Angeles Center
04:02PM 34.5539 -117.1383 48° Northeast 429 494 26,500 -1,800 Descending Los Angeles Center
04:03PM 34.6306 -117.0339 48° Northeast 421 484 25,000 -720 Descending Los Angeles Center
04:04PM 34.7089 -116.9256 49° Northeast 430 495 25,000 -120 Level Los Angeles Center
04:05PM 34.7931 -116.8083 49° Northeast 460 529 24,800 -540 Descending Los Angeles Center
04:06PM 34.8739 -116.6969 48° Northeast 445 512 24,000 -420 Descending Los Angeles Center
04:07PM 34.9733 -116.5608 48° Northeast 450 518 24,000  Level Los Angeles Center
04:08PM 35.0608 -116.4536 45° Northeast 446 513 24,000 -180 Level Los Angeles Center
04:09PM 35.1294 -116.3653 46° Northeast 449 517 23,700 -1,200 Descending Los Angeles Center
04:10PM 35.2322 -116.2367 46° Northeast 445 512 21,600 -1,800 Descending Los Angeles Center
04:11PM 35.3156 -116.1325 46° Northeast 433 498 20,000 -1,560 Descending Los Angeles Center
04:12PM 35.3961 -116.0308 46° Northeast 422 486 18,400 -1,800 Descending Los Angeles Center
04:13PM 35.4811 -115.9244 46° Northeast 427 491 16,700 -1,860 Descending Los Angeles Center
04:14PM 35.5117 -115.8858 46° Northeast 426 490 16,100 -1,500 Descending Los Angeles Center
04:14PM 35.5722 -115.8092 46° Northeast 416 479 14,900 -1,500 Descending Los Angeles Center
04:15PM 35.6489 -115.7222 43° Northeast 400 460 13,400 -960 Descending Los Angeles Center
04:17PM 35.7381 -115.6436 36° Northeast 373 429 13,000 -240 Descending Los Angeles Center
04:18PM 35.8239 -115.5658 36° Northeast 357 411 13,000  Level Los Angeles Center
04:19PM 35.8881 -115.5067 37° Northeast 353 406 13,000 -720 Level Los Angeles Center
04:20PM 35.9889 -115.4042 39° Northeast 351 404 11,500 -1,080 Descending Los Angeles Center
04:21PM 36.0239 -115.3150 64° Northeast 345 397 10,800 -1,380 Descending Los Angeles Center
04:22PM 36.0186 -115.1925 93° East 289 333 8,700 -1,380 Descending Los Angeles Center
04:23PM 36.0128 -115.1211 96° East 275 316 8,000 -360 Descending Los Angeles Center
04:24PM 36.0072 -115.0397 95° East 211 243 8,000  Level Los Angeles Center
04:25PM 36.0181 -114.9719 79° East 219 252 8,000 -480 Level Los Angeles Center
04:26PM 36.0686 -114.9364 30° Northeast 208 239 7,100 -960 Descending Los Angeles Center
04:27PM 36.1192 -114.9094 23° Northeast 208 239 6,100 -1,140 Descending Los Angeles Center
04:28PM 36.1447 -114.9672 299° West 167 192 4,900 -1,020 Descending Los Angeles Center
04:29PM 36.1475 -115.0158 274° West 172 198 4,100 -600 Descending Los Angeles Center
04:30PM 36.1483 -115.0831 271° West 165 190 3,700 -660 Descending Los Angeles Center
04:31PM 36.1433 -115.1300 263° West 124 143 2,900 -600 Descending Los Angeles Center
04:32PM 36.1144 -115.1475 206° Southwest 128 147 2,400 -480 Descending Los Angeles Center
04:34PM 36.0801 -115.1523 270° West  Level Estimated
04:41PM 36.0801 -115.1523 270° West  Level Estimated